Time;durP1;ratioP1;P1;durP2;ratioP2;P2;SDS_P1;SDS_P2;PMS_P1;PMS_P2;Temp;Humidity;BMP_temperature;BMP_pressure;BME280_temperature;BME280_humidity;BME280_pressure;Samples;Min_cycle;Max_cycle;Signal;HPM_P1;HPM_P2
2022/11/17 00:00:10;;;;;;;44.80;34.95;;;;;;;;;;5033104;28;20033;-75
2022/11/17 00:02:36;;;;;;;51.00;38.03;;;;;;;;;;5032918;28;20057;-75
2022/11/17 00:05:02;;;;;;;43.35;34.20;;;;;;;;;;5032904;28;20467;-76
2022/11/17 00:07:28;;;;;;;43.17;32.97;;;;;;;;;;5033084;28;20484;-75
2022/11/17 00:09:54;;;;;;;42.78;33.42;;;;;;;;;;5033063;28;20025;-73
2022/11/17 00:15:05;;;;;;;76.32;50.38;;;;;;;;;;5032963;28;20160;-75
2022/11/17 00:17:31;;;;;;;52.40;39.10;;;;;;;;;;5033397;28;20227;-75
2022/11/17 00:22:42;;;;;;;53.70;40.03;;;;;;;;;;5033069;28;20029;-75
2022/11/17 00:25:08;;;;;;;53.25;37.50;;;;;;;;;;5031776;28;20397;-75
2022/11/17 00:27:34;;;;;;;52.85;37.47;;;;;;;;;;5032597;28;20028;-76
2022/11/17 00:30:00;;;;;;;41.47;31.23;;;;;;;;;;5032989;28;20025;-76
2022/11/17 00:35:11;;;;;;;30.77;24.75;;;;;;;;;;5032680;28;20071;-76
2022/11/17 00:38:14;;;;;;;31.60;24.83;;;;;;;;;;5032728;28;20022;-75
2022/11/17 00:40:24;;;;;;;27.23;21.33;;;;;;;;;;5032490;28;20069;-74
2022/11/17 00:42:50;;;;;;;27.02;20.58;;;;;;;;;;5033134;28;20032;-74
2022/11/17 00:45:16;;;;;;;23.77;20.35;;;;;;;;;;5036465;28;20042;-74
2022/11/17 00:47:42;;;;;;;28.98;21.88;;;;;;;;;;5036871;28;20049;-73
2022/11/17 00:50:09;;;;;;;24.98;17.23;;;;;;;;;;5036445;28;20025;-74
2022/11/17 00:52:35;;;;;;;23.27;16.75;;;;;;;;;;5036757;28;20022;-73
2022/11/17 00:55:01;;;;;;;21.25;14.90;;;;;;;;;;5033092;28;20022;-74
2022/11/17 00:57:27;;;;;;;24.00;14.32;;;;;;;;;;5026188;28;20022;-75
2022/11/17 00:59:53;;;;;;;20.80;14.40;;;;;;;;;;5036120;28;20026;-76
2022/11/17 01:02:19;;;;;;;17.70;14.60;;;;;;;;;;5036615;28;20045;-75
2022/11/17 01:04:45;;;;;;;21.40;16.00;;;;;;;;;;5036518;28;20033;-76
2022/11/17 01:07:11;;;;;;;16.27;13.63;;;;;;;;;;5036364;28;20053;-74
2022/11/17 01:09:37;;;;;;;17.45;13.10;;;;;;;;;;5036406;28;20036;-74
2022/11/17 01:12:03;;;;;;;42.50;25.30;;;;;;;;;;5036367;28;20107;-74
2022/11/17 01:14:31;;;;;;;15.98;12.65;;;;;;;;;;5035097;28;20033;-74
2022/11/17 01:16:58;;;;;;;17.33;12.75;;;;;;;;;;5036301;28;20025;-74
2022/11/17 01:19:24;;;;;;;18.00;12.90;;;;;;;;;;5036067;28;20037;-73
2022/11/17 01:21:50;;;;;;;14.30;11.38;;;;;;;;;;5036093;28;20029;-74
2022/11/17 01:24:16;;;;;;;10.80;9.68;;;;;;;;;;5036130;28;20061;-74
2022/11/17 01:26:43;;;;;;;12.52;8.55;;;;;;;;;;5036161;28;20022;-74
2022/11/17 01:29:11;;;;;;;10.18;7.75;;;;;;;;;;5035799;28;20075;-75
2022/11/17 01:31:38;;;;;;;11.25;5.97;;;;;;;;;;5036191;28;20026;-75
2022/11/17 01:34:05;;;;;;;6.82;5.75;;;;;;;;;;5035763;28;20064;-74
2022/11/17 01:39:34;;;;;;;8.48;5.82;;;;;;;;;;5036678;28;20092;-75
2022/11/17 01:42:04;;;;;;;8.32;5.30;;;;;;;;;;5035341;28;20022;-74
2022/11/17 01:44:49;;;;;;;8.70;5.03;;;;;;;;;;5035708;28;20431;-73
2022/11/17 01:47:17;;;;;;;8.20;5.22;;;;;;;;;;5035466;28;20256;-76
2022/11/17 01:49:44;;;;;;;6.93;4.72;;;;;;;;;;5035573;28;20022;-76
2022/11/17 01:52:10;;;;;;;6.07;4.65;;;;;;;;;;5035641;28;20029;-75
2022/11/17 01:54:39;;;;;;;5.72;4.53;;;;;;;;;;5035400;28;20468;-72
2022/11/17 01:57:07;;;;;;;5.78;4.32;;;;;;;;;;5035335;28;20025;-74
2022/11/17 01:59:35;;;;;;;5.90;3.83;;;;;;;;;;5035610;28;20025;-76
2022/11/17 02:02:01;;;;;;;6.28;4.70;;;;;;;;;;5035103;28;20049;-74
2022/11/17 02:04:30;;;;;;;6.30;4.07;;;;;;;;;;5035350;28;20048;-74
2022/11/17 02:07:01;;;;;;;5.25;4.18;;;;;;;;;;5035111;28;20380;-75
2022/11/17 02:09:27;;;;;;;5.28;4.55;;;;;;;;;;5035121;28;20021;-74
2022/11/17 02:11:56;;;;;;;6.28;4.82;;;;;;;;;;5035030;28;20103;-74
2022/11/17 02:14:22;;;;;;;5.78;4.28;;;;;;;;;;5035037;28;20057;-74
2022/11/17 02:16:48;;;;;;;5.03;3.38;;;;;;;;;;5035006;28;20472;-74
2022/11/17 02:19:15;;;;;;;8.15;4.13;;;;;;;;;;5034910;28;20499;-73
2022/11/17 02:22:02;;;;;;;5.35;3.65;;;;;;;;;;5035041;28;20028;-74
2022/11/17 02:24:28;;;;;;;5.47;3.38;;;;;;;;;;5034271;28;20484;-74
2022/11/17 02:27:12;;;;;;;4.25;3.47;;;;;;;;;;5034813;28;20037;-74
2022/11/17 02:29:57;;;;;;;6.15;3.90;;;;;;;;;;5035042;28;20031;-75
2022/11/17 02:32:42;;;;;;;4.82;3.30;;;;;;;;;;5034870;28;20064;-75
2022/11/17 02:35:20;;;;;;;5.10;3.78;;;;;;;;;;5034688;28;20044;-76
2022/11/17 02:37:46;;;;;;;5.70;3.58;;;;;;;;;;5034753;28;20032;-76
2022/11/17 02:40:20;;;;;;;4.43;3.53;;;;;;;;;;5034711;28;20021;-76
2022/11/17 02:45:53;;;;;;;4.63;3.47;;;;;;;;;;5035099;28;20044;-76
2022/11/17 02:48:19;;;;;;;;;;;;;;;;;;5035282;28;20026;-77
2022/11/17 02:50:46;;;;;;;4.00;2.95;;;;;;;;;;5032789;28;19912;-76
2022/11/17 02:53:13;;;;;;;4.10;3.33;;;;;;;;;;5034314;28;20366;-76
2022/11/17 02:55:39;;;;;;;5.30;3.50;;;;;;;;;;5034501;28;20025;-76
2022/11/17 02:58:11;;;;;;;5.60;3.50;;;;;;;;;;5020069;28;20057;-76
2022/11/17 03:00:42;;;;;;;4.93;3.40;;;;;;;;;;5033268;28;20113;-76
2022/11/17 03:03:13;;;;;;;5.53;3.75;;;;;;;;;;5034011;28;20500;-77
2022/11/17 03:05:52;;;;;;;7.97;5.43;;;;;;;;;;5033975;28;20044;-76
2022/11/17 03:08:21;;;;;;;8.77;5.75;;;;;;;;;;5033750;28;20020;-76
2022/11/17 03:10:56;;;;;;;12.15;6.78;;;;;;;;;;5034383;28;20073;-75
2022/11/17 03:13:33;;;;;;;7.80;5.47;;;;;;;;;;5034002;28;20029;-76
2022/11/17 03:16:07;;;;;;;7.05;5.13;;;;;;;;;;5034146;28;20030;-76
2022/11/17 03:18:41;;;;;;;6.70;4.45;;;;;;;;;;5033818;28;20021;-76
2022/11/17 03:21:13;;;;;;;6.78;4.70;;;;;;;;;;5034019;28;20120;-77
2022/11/17 03:23:46;;;;;;;5.47;4.55;;;;;;;;;;5034131;28;20029;-76
2022/11/17 03:26:14;;;;;;;5.63;4.50;;;;;;;;;;5033789;28;20072;-77
2022/11/17 03:28:42;;;;;;;4.95;4.03;;;;;;;;;;5033625;28;20484;-77
2022/11/17 03:31:08;;;;;;;4.72;3.63;;;;;;;;;;5033951;28;20033;-77
2022/11/17 03:33:35;;;;;;;6.13;3.67;;;;;;;;;;5033728;28;20475;-76
2022/11/17 03:36:07;;;;;;;15.00;10.98;;;;;;;;;;5033607;28;20021;-76
2022/11/17 03:38:36;;;;;;;8.63;6.03;;;;;;;;;;5033986;28;20038;-76
2022/11/17 03:41:05;;;;;;;5.55;3.65;;;;;;;;;;5033224;28;20053;-76
2022/11/17 03:43:31;;;;;;;6.07;3.67;;;;;;;;;;5033544;28;20021;-77
2022/11/17 03:46:00;;;;;;;3.97;3.15;;;;;;;;;;5032060;28;20068;-76
2022/11/17 03:48:30;;;;;;;3.47;2.78;;;;;;;;;;5033424;28;20468;-77
2022/11/17 03:50:56;;;;;;;4.82;3.60;;;;;;;;;;5033141;28;20022;-77
2022/11/17 03:53:23;;;;;;;4.00;2.90;;;;;;;;;;5033296;28;20021;-76
2022/11/17 03:55:51;;;;;;;3.65;2.67;;;;;;;;;;5033188;28;20025;-76
2022/11/17 03:58:19;;;;;;;3.42;2.63;;;;;;;;;;5033499;28;20364;-77
2022/11/17 04:00:48;;;;;;;3.72;3.05;;;;;;;;;;5031885;28;20033;-77
2022/11/17 04:03:15;;;;;;;5.05;2.63;;;;;;;;;;5032772;28;20053;-77
2022/11/17 04:05:41;;;;;;;3.33;2.83;;;;;;;;;;5033108;28;20028;-77
2022/11/17 04:08:07;;;;;;;3.33;2.80;;;;;;;;;;5033189;28;20025;-77
2022/11/17 04:15:55;;;;;;;3.70;3.05;;;;;;;;;;5033098;28;20029;-76
2022/11/17 04:16:04;;;;;;;4.63;3.80;;;;;;;;;;5033363;28;20032;-77
2022/11/17 04:18:30;;;;;;;5.20;4.43;;;;;;;;;;5030662;28;20049;-77
2022/11/17 04:20:56;;;;;;;5.45;4.13;;;;;;;;;;5033377;28;20064;-77
2022/11/17 04:23:23;;;;;;;4.90;4.15;;;;;;;;;;5032875;28;20013;-77
2022/11/17 04:28:36;;;;;;;4.57;3.60;;;;;;;;;;5032355;28;20068;-76
2022/11/17 04:31:10;;;;;;;4.90;3.78;;;;;;;;;;5032989;28;20489;-77
2022/11/17 04:33:37;;;;;;;5.85;3.67;;;;;;;;;;5032673;28;20025;-76
2022/11/17 04:36:03;;;;;;;7.50;3.40;;;;;;;;;;5031396;28;20492;-76
2022/11/17 04:38:29;;;;;;;5.80;4.70;;;;;;;;;;5032728;28;20057;-77
2022/11/17 04:43:48;;;;;;;4.82;4.32;;;;;;;;;;5032412;28;20392;-77
2022/11/17 04:46:15;;;;;;;7.70;5.03;;;;;;;;;;5032604;28;20071;-73
2022/11/17 04:48:41;;;;;;;8.45;5.85;;;;;;;;;;5032651;28;20024;-76
2022/11/17 04:51:07;;;;;;;11.35;7.55;;;;;;;;;;5032878;28;20025;-76
2022/11/17 04:53:33;;;;;;;8.50;6.45;;;;;;;;;;5032526;28;20083;-77
2022/11/17 04:56:03;;;;;;;8.75;7.10;;;;;;;;;;5031871;28;20047;-77
2022/11/17 04:58:29;;;;;;;12.40;8.90;;;;;;;;;;5032639;28;20017;-73
2022/11/17 05:01:11;;;;;;;9.35;7.30;;;;;;;;;;5032080;28;20033;-76
2022/11/17 05:03:37;;;;;;;13.32;8.32;;;;;;;;;;5032517;28;20037;-77
2022/11/17 05:06:03;;;;;;;10.52;8.82;;;;;;;;;;5032474;28;20029;-78
2022/11/17 05:08:29;;;;;;;13.60;10.25;;;;;;;;;;5032863;28;20044;-76
2022/11/17 05:13:41;;;;;;;10.40;8.45;;;;;;;;;;5018961;28;20113;-77
2022/11/17 05:18:52;;;;;;;10.80;9.20;;;;;;;;;;5032579;28;20044;-76
2022/11/17 05:21:18;;;;;;;10.85;7.97;;;;;;;;;;5031053;28;20087;-77
2022/11/17 05:23:53;;;;;;;10.05;8.30;;;;;;;;;;5032203;28;20057;-77
2022/11/17 05:26:19;;;;;;;9.82;8.05;;;;;;;;;;5032219;28;20096;-77
2022/11/17 05:28:45;;;;;;;7.93;7.13;;;;;;;;;;5032294;28;20105;-78
2022/11/17 05:31:11;;;;;;;9.75;8.23;;;;;;;;;;5036269;28;20053;-79
2022/11/17 05:33:38;;;;;;;11.50;9.75;;;;;;;;;;5035125;28;20562;-77
2022/11/17 05:36:04;;;;;;;11.45;9.63;;;;;;;;;;5035589;28;20025;-78
2022/11/17 05:38:30;;;;;;;17.20;13.80;;;;;;;;;;5036123;28;20044;-77
2022/11/17 05:40:56;;;;;;;16.75;13.77;;;;;;;;;;5034440;28;20033;-76
2022/11/17 05:43:22;;;;;;;18.02;14.70;;;;;;;;;;5035817;28;20388;-72
2022/11/17 05:45:48;;;;;;;17.67;14.60;;;;;;;;;;5035387;28;20053;-76
2022/11/17 05:48:15;;;;;;;20.55;15.82;;;;;;;;;;5035814;28;20021;-76
2022/11/17 05:50:41;;;;;;;16.70;13.50;;;;;;;;;;5035258;28;20029;-77
2022/11/17 05:53:07;;;;;;;20.92;17.90;;;;;;;;;;5035527;28;20057;-77
2022/11/17 05:55:34;;;;;;;26.80;19.98;;;;;;;;;;5035590;28;20041;-74
2022/11/17 05:58:05;;;;;;;27.02;20.45;;;;;;;;;;5034982;28;20104;-77
2022/11/17 06:00:32;;;;;;;25.90;20.17;;;;;;;;;;5035489;28;20030;-76
2022/11/17 06:03:00;;;;;;;23.83;20.13;;;;;;;;;;5035216;28;20046;-77
2022/11/17 06:05:27;;;;;;;53.22;38.05;;;;;;;;;;5035221;28;20029;-76
2022/11/17 06:07:54;;;;;;;19.50;16.17;;;;;;;;;;5035412;28;20061;-77
2022/11/17 06:10:20;;;;;;;15.95;13.98;;;;;;;;;;5035397;28;20028;-77
2022/11/17 06:12:47;;;;;;;20.15;16.35;;;;;;;;;;5035055;28;20060;-77
2022/11/17 06:15:13;;;;;;;17.83;15.68;;;;;;;;;;5035046;28;20045;-77
2022/11/17 06:17:42;;;;;;;26.95;19.75;;;;;;;;;;5035044;28;20030;-76
2022/11/17 06:20:14;;;;;;;19.27;14.60;;;;;;;;;;5034909;28;20109;-76
2022/11/17 06:22:40;;;;;;;19.30;15.60;;;;;;;;;;5035190;28;20056;-76
2022/11/17 06:25:08;;;;;;;20.27;14.73;;;;;;;;;;5035012;28;20044;-76
2022/11/17 06:27:35;;;;;;;15.35;13.07;;;;;;;;;;5034868;28;20388;-77
2022/11/17 06:30:02;;;;;;;19.05;15.18;;;;;;;;;;5034774;28;20132;-77
2022/11/17 06:32:29;;;;;;;17.98;14.55;;;;;;;;;;5034589;28;20055;-76
2022/11/17 06:34:56;;;;;;;13.40;11.68;;;;;;;;;;5034647;28;20021;-76
2022/11/17 06:37:22;;;;;;;14.50;12.05;;;;;;;;;;5034656;28;20022;-76
2022/11/17 06:39:48;;;;;;;10.73;8.77;;;;;;;;;;5034325;28;20028;-76
2022/11/17 06:42:14;;;;;;;12.52;10.00;;;;;;;;;;5033171;28;20645;-76
2022/11/17 06:44:41;;;;;;;15.05;11.00;;;;;;;;;;5021120;28;20052;-77
2022/11/17 06:47:07;;;;;;;14.15;11.75;;;;;;;;;;5034545;28;20021;-76
2022/11/17 06:49:33;;;;;;;19.90;15.85;;;;;;;;;;5034386;28;20037;-76
2022/11/17 06:51:59;;;;;;;17.35;12.32;;;;;;;;;;5034456;28;20060;-76
2022/11/17 06:54:25;;;;;;;17.45;15.45;;;;;;;;;;5034487;28;20025;-77
2022/11/17 06:56:51;;;;;;;19.88;16.73;;;;;;;;;;5034213;28;20084;-76
2022/11/17 06:59:17;;;;;;;18.08;16.17;;;;;;;;;;5034487;28;20022;-77
2022/11/17 07:01:43;;;;;;;42.83;27.40;;;;;;;;;;5033765;28;20045;-77
2022/11/17 07:04:09;;;;;;;21.42;15.70;;;;;;;;;;5034105;28;20052;-74
2022/11/17 07:06:36;;;;;;;22.23;15.60;;;;;;;;;;5034017;28;20032;-72
2022/11/17 07:09:02;;;;;;;24.55;18.75;;;;;;;;;;5034213;28;20021;-76
2022/11/17 07:11:28;;;;;;;28.42;18.75;;;;;;;;;;5021208;28;20069;-76
2022/11/17 07:13:54;;;;;;;30.52;20.83;;;;;;;;;;5033063;28;20025;-77
2022/11/17 07:16:20;;;;;;;33.22;21.95;;;;;;;;;;5033950;28;20034;-77
2022/11/17 07:18:47;;;;;;;41.65;37.65;;;;;;;;;;5034021;28;20024;-76
2022/11/17 07:21:14;;;;;;;25.88;22.15;;;;;;;;;;5033734;28;20033;-76
2022/11/17 07:23:41;;;;;;;18.90;16.85;;;;;;;;;;5033670;28;20017;-76
2022/11/17 07:26:07;;;;;;;22.17;18.08;;;;;;;;;;5033780;28;20028;-76
2022/11/17 07:28:34;;;;;;;26.58;20.42;;;;;;;;;;5033575;28;20021;-76
2022/11/17 07:31:04;;;;;;;19.10;15.68;;;;;;;;;;5033699;28;20025;-76
2022/11/17 07:33:30;;;;;;;29.23;21.02;;;;;;;;;;5033603;28;20036;-77
2022/11/17 07:36:01;;;;;;;25.88;19.50;;;;;;;;;;5033381;28;20031;-76
2022/11/17 07:38:29;;;;;;;25.57;20.00;;;;;;;;;;5033457;28;20017;-76
2022/11/17 07:40:57;;;;;;;28.42;21.42;;;;;;;;;;5033528;28;20030;-77
2022/11/17 07:43:23;;;;;;;24.73;21.88;;;;;;;;;;5033372;28;20576;-76
2022/11/17 07:45:49;;;;;;;23.45;17.50;;;;;;;;;;5033624;28;20361;-77
2022/11/17 07:48:15;;;;;;;19.48;15.95;;;;;;;;;;5033137;28;20461;-76
2022/11/17 07:50:42;;;;;;;25.27;22.27;;;;;;;;;;5033122;28;20478;-75
2022/11/17 07:53:08;;;;;;;23.13;19.30;;;;;;;;;;5032785;28;20021;-75
2022/11/17 07:55:34;;;;;;;29.20;24.77;;;;;;;;;;5033643;28;20022;-76
2022/11/17 07:58:00;;;;;;;22.98;20.30;;;;;;;;;;5033134;28;20499;-74
2022/11/17 08:00:28;;;;;;;22.60;20.10;;;;;;;;;;5033316;28;20029;-77
2022/11/17 08:02:54;;;;;;;20.23;17.88;;;;;;;;;;5032849;28;20138;-77
2022/11/17 08:05:20;;;;;;;27.05;22.17;;;;;;;;;;5032888;28;20591;-76
2022/11/17 08:07:53;;;;;;;51.55;35.83;;;;;;;;;;5033185;28;20056;-76
2022/11/17 08:10:19;;;;;;;37.05;25.58;;;;;;;;;;5033039;28;20032;-76
2022/11/17 08:12:45;;;;;;;20.42;18.17;;;;;;;;;;5032837;28;20072;-76
2022/11/17 08:15:11;;;;;;;23.77;19.92;;;;;;;;;;5032979;28;20075;-77
2022/11/17 08:17:37;;;;;;;23.40;19.60;;;;;;;;;;5032879;28;20024;-77
2022/11/17 08:20:04;;;;;;;22.30;19.88;;;;;;;;;;5032874;28;20022;-75
2022/11/17 08:22:30;;;;;;;52.70;39.28;;;;;;;;;;5032773;28;20026;-76
2022/11/17 08:24:56;;;;;;;40.38;34.05;;;;;;;;;;5032951;28;20044;-76
2022/11/17 08:27:22;;;;;;;38.60;31.27;;;;;;;;;;5032725;28;20443;-76
2022/11/17 08:29:48;;;;;;;26.52;21.90;;;;;;;;;;5032827;28;20037;-76
2022/11/17 08:32:15;;;;;;;29.30;24.50;;;;;;;;;;5031467;28;20041;-76
2022/11/17 08:34:41;;;;;;;28.35;23.55;;;;;;;;;;5032652;28;20071;-77
2022/11/17 08:37:07;;;;;;;29.23;23.90;;;;;;;;;;5031613;28;20033;-76
2022/11/17 08:39:33;;;;;;;26.10;22.80;;;;;;;;;;5032867;28;20033;-77
2022/11/17 08:41:59;;;;;;;25.95;21.85;;;;;;;;;;5031436;28;20079;-76
2022/11/17 08:44:25;;;;;;;20.77;17.90;;;;;;;;;;5032655;28;20036;-78
2022/11/17 08:46:51;;;;;;;23.13;20.20;;;;;;;;;;5032559;28;20422;-77
2022/11/17 08:49:17;;;;;;;24.70;21.83;;;;;;;;;;5032289;28;20061;-77
2022/11/17 08:51:43;;;;;;;34.72;27.85;;;;;;;;;;5032377;28;20028;-75
2022/11/17 08:54:12;;;;;;;26.65;21.63;;;;;;;;;;5022229;28;20032;-76
2022/11/17 08:56:39;;;;;;;22.42;19.50;;;;;;;;;;5029518;28;20026;-77
2022/11/17 08:59:05;;;;;;;22.58;20.20;;;;;;;;;;5032447;28;20021;-77
2022/11/17 09:01:31;;;;;;;23.98;21.02;;;;;;;;;;5032576;28;20404;-77
2022/11/17 09:03:57;;;;;;;21.73;18.77;;;;;;;;;;5032749;28;20041;-77
2022/11/17 09:06:23;;;;;;;21.63;18.42;;;;;;;;;;5036806;28;20029;-77
2022/11/17 09:08:52;;;;;;;23.92;21.35;;;;;;;;;;5036163;28;20025;-77
2022/11/17 09:11:19;;;;;;;19.13;17.10;;;;;;;;;;5036512;28;20036;-76
2022/11/17 09:13:45;;;;;;;18.20;16.15;;;;;;;;;;5036220;28;20036;-77
2022/11/17 09:16:12;;;;;;;18.17;16.02;;;;;;;;;;5036291;28;20495;-73
2022/11/17 09:18:38;;;;;;;19.30;17.17;;;;;;;;;;5036047;28;20026;-76
2022/11/17 09:21:05;;;;;;;21.17;18.15;;;;;;;;;;5036097;28;20029;-77
2022/11/17 09:23:32;;;;;;;23.15;19.95;;;;;;;;;;5035928;28;20026;-74
2022/11/17 09:25:58;;;;;;;24.48;21.17;;;;;;;;;;5036343;28;20018;-76
2022/11/17 09:28:25;;;;;;;22.70;19.55;;;;;;;;;;5035772;28;20029;-76
2022/11/17 09:30:51;;;;;;;28.90;22.92;;;;;;;;;;5035986;28;20025;-76
2022/11/17 09:33:18;;;;;;;31.23;25.80;;;;;;;;;;5035809;28;20032;-76
2022/11/17 09:35:44;;;;;;;28.38;23.42;;;;;;;;;;5035660;28;20040;-75
2022/11/17 09:38:10;;;;;;;45.72;30.17;;;;;;;;;;5035861;28;20027;-75
2022/11/17 09:40:39;;;;;;;34.75;26.70;;;;;;;;;;5035721;28;20026;-77
2022/11/17 09:43:08;;;;;;;31.88;23.95;;;;;;;;;;5035511;28;20025;-75
2022/11/17 09:45:36;;;;;;;26.70;22.45;;;;;;;;;;5035709;28;20116;-76
2022/11/17 09:48:10;;;;;;;27.95;21.40;;;;;;;;;;5035717;28;20086;-72
2022/11/17 09:50:38;;;;;;;20.70;17.50;;;;;;;;;;5035421;28;20096;-75
2022/11/17 09:53:22;;;;;;;23.33;17.80;;;;;;;;;;5035286;28;20484;-76
2022/11/17 09:55:50;;;;;;;20.85;16.83;;;;;;;;;;5035431;28;20036;-76
2022/11/17 09:58:36;;;;;;;38.80;21.20;;;;;;;;;;5035260;28;20026;-76
2022/11/17 10:01:02;;;;;;;29.13;19.20;;;;;;;;;;5034945;28;20021;-76
2022/11/17 10:03:33;;;;;;;26.27;17.67;;;;;;;;;;5035159;28;20380;-76
2022/11/17 10:06:00;;;;;;;34.13;22.00;;;;;;;;;;5035348;28;20025;-77
2022/11/17 10:08:39;;;;;;;45.80;19.75;;;;;;;;;;5035089;28;20772;-75
2022/11/17 10:11:30;;;;;;;34.65;20.30;;;;;;;;;;5035032;28;20100;-75
2022/11/17 10:13:56;;;;;;;27.67;17.60;;;;;;;;;;5034963;28;20391;-74
2022/11/17 10:16:22;;;;;;;30.02;15.57;;;;;;;;;;5033636;28;20037;-75
2022/11/17 10:18:48;;;;;;;25.20;16.45;;;;;;;;;;5035081;28;20056;-75
2022/11/17 10:21:14;;;;;;;35.95;23.48;;;;;;;;;;5034923;28;20021;-75
2022/11/17 10:23:43;;;;;;;40.15;19.08;;;;;;;;;;5034887;28;20041;-75
2022/11/17 10:26:10;;;;;;;27.98;17.40;;;;;;;;;;5034654;28;20022;-74
2022/11/17 10:28:37;;;;;;;26.20;18.33;;;;;;;;;;5034791;28;20021;-71
2022/11/17 10:31:06;;;;;;;39.75;20.90;;;;;;;;;;5034513;28;20029;-75
2022/11/17 10:33:37;;;;;;;32.55;18.65;;;;;;;;;;5034959;28;20029;-75
2022/11/17 10:36:05;;;;;;;44.80;20.48;;;;;;;;;;5034540;28;20029;-72
2022/11/17 10:38:32;;;;;;;23.38;18.08;;;;;;;;;;5035044;28;20371;-73
2022/11/17 10:41:00;;;;;;;17.77;13.45;;;;;;;;;;5034370;28;20099;-73
2022/11/17 10:43:31;;;;;;;28.95;19.40;;;;;;;;;;5034900;28;20071;-73
2022/11/17 10:45:59;;;;;;;19.58;13.75;;;;;;;;;;5034344;28;20377;-75
2022/11/17 10:48:25;;;;;;;17.58;13.35;;;;;;;;;;5034281;28;20021;-75
2022/11/17 10:50:55;;;;;;;43.95;14.70;;;;;;;;;;5034297;28;20522;-75
2022/11/17 10:53:43;;;;;;;21.63;10.80;;;;;;;;;;5032874;28;20064;-76
2022/11/17 10:56:20;;;;;;;35.30;17.55;;;;;;;;;;5034432;28;20116;-75
2022/11/17 10:58:55;;;;;;;33.72;13.38;;;;;;;;;;5034238;28;20025;-76
2022/11/17 11:01:28;;;;;;;26.02;13.20;;;;;;;;;;5034247;28;20455;-75
2022/11/17 11:03:55;;;;;;;13.95;9.55;;;;;;;;;;5034048;28;20550;-74
2022/11/17 11:06:25;;;;;;;27.38;10.90;;;;;;;;;;5034035;28;20058;-77
2022/11/17 11:08:58;;;;;;;21.42;9.65;;;;;;;;;;5033914;28;20021;-76
2022/11/17 11:11:30;;;;;;;26.70;9.68;;;;;;;;;;5034338;28;20017;-76
2022/11/17 11:13:58;;;;;;;16.95;7.28;;;;;;;;;;5033854;28;20095;-76
2022/11/17 11:16:25;;;;;;;18.83;6.25;;;;;;;;;;5033853;28;20080;-76
2022/11/17 11:18:52;;;;;;;25.98;6.63;;;;;;;;;;5033691;28;20387;-74
2022/11/17 11:21:40;;;;;;;11.70;6.68;;;;;;;;;;5033903;28;20491;-76
2022/11/17 11:24:06;;;;;;;12.77;6.57;;;;;;;;;;5033740;28;20076;-74
2022/11/17 11:26:32;;;;;;;15.27;6.47;;;;;;;;;;5033389;28;20021;-75
2022/11/17 11:29:06;;;;;;;12.55;7.13;;;;;;;;;;5033549;28;20018;-75
2022/11/17 11:31:35;;;;;;;18.05;8.63;;;;;;;;;;5033557;28;20116;-75
2022/11/17 11:34:15;;;;;;;7.68;3.10;;;;;;;;;;5033618;28;20030;-75
2022/11/17 11:36:41;;;;;;;10.27;4.70;;;;;;;;;;5033690;28;20469;-76
2022/11/17 11:39:16;;;;;;;6.30;4.13;;;;;;;;;;5033536;28;20067;-76
2022/11/17 11:42:02;;;;;;;5.53;4.22;;;;;;;;;;5033527;28;20039;-75
2022/11/17 11:44:44;;;;;;;6.55;4.95;;;;;;;;;;5033174;28;20036;-76
2022/11/17 11:47:13;;;;;;;7.97;4.55;;;;;;;;;;5033340;28;20104;-77
2022/11/17 11:49:41;;;;;;;9.30;4.95;;;;;;;;;;5033364;28;20022;-76
2022/11/17 11:52:14;;;;;;;5.32;3.72;;;;;;;;;;5032830;28;20480;-74
2022/11/17 11:54:42;;;;;;;7.07;4.15;;;;;;;;;;5032817;28;20026;-76
2022/11/17 11:57:12;;;;;;;7.55;4.75;;;;;;;;;;5033000;28;20029;-76
2022/11/17 11:59:44;;;;;;;9.30;5.55;;;;;;;;;;5033124;28;20476;-76
2022/11/17 12:02:10;;;;;;;11.23;7.97;;;;;;;;;;5033045;28;20048;-76
2022/11/17 12:04:54;;;;;;;21.33;14.77;;;;;;;;;;5033247;28;20368;-77
2022/11/17 12:07:40;;;;;;;12.15;8.18;;;;;;;;;;5032776;28;20053;-76
2022/11/17 12:10:19;;;;;;;10.57;8.27;;;;;;;;;;5032698;28;20036;-77
2022/11/17 12:12:45;;;;;;;13.77;9.05;;;;;;;;;;5033181;28;20034;-76
2022/11/17 12:15:18;;;;;;;13.20;8.45;;;;;;;;;;5032673;28;20029;-73
2022/11/17 12:17:59;;;;;;;22.40;12.80;;;;;;;;;;5032667;28;20028;-77
2022/11/17 12:20:31;;;;;;;33.10;18.15;;;;;;;;;;5032793;28;20389;-77
2022/11/17 12:23:16;;;;;;;18.15;11.02;;;;;;;;;;5032879;28;20017;-76
2022/11/17 12:25:49;;;;;;;38.38;16.98;;;;;;;;;;5032472;28;20041;-77
2022/11/17 12:28:27;;;;;;;10.82;7.68;;;;;;;;;;5032350;28;20021;-76
2022/11/17 12:31:01;;;;;;;40.22;23.73;;;;;;;;;;5032861;28;20033;-77
2022/11/17 12:33:46;;;;;;;14.40;8.77;;;;;;;;;;5032510;28;20095;-77
2022/11/17 12:36:18;;;;;;;56.28;30.80;;;;;;;;;;5032675;28;20064;-77
2022/11/17 12:38:44;;;;;;;20.58;11.60;;;;;;;;;;5031867;28;20079;-76
2022/11/17 12:41:10;;;;;;;24.30;14.60;;;;;;;;;;5032354;28;20025;-76
2022/11/17 12:43:36;;;;;;;29.38;17.40;;;;;;;;;;5032761;28;20384;-76
2022/11/17 12:46:05;;;;;;;27.33;14.60;;;;;;;;;;5032552;28;20033;-73
2022/11/17 12:48:33;;;;;;;20.25;13.15;;;;;;;;;;5032266;28;20021;-75
2022/11/17 12:51:08;;;;;;;29.38;16.90;;;;;;;;;;5032332;28;20029;-76
2022/11/17 12:53:38;;;;;;;20.52;12.15;;;;;;;;;;5030821;28;20029;-76
2022/11/17 12:56:11;;;;;;;22.95;14.75;;;;;;;;;;5032607;28;20084;-76
2022/11/17 12:58:56;;;;;;;24.95;13.18;;;;;;;;;;5032294;28;20022;-73
2022/11/17 13:01:22;;;;;;;19.42;11.07;;;;;;;;;;5032169;28;20385;-75
2022/11/17 13:03:50;;;;;;;25.65;8.52;;;;;;;;;;5032173;28;20025;-76
2022/11/17 13:06:17;;;;;;;34.10;13.85;;;;;;;;;;5032086;28;20061;-77
2022/11/17 13:08:56;;;;;;;19.83;10.55;;;;;;;;;;5032262;28;20018;-77
2022/11/17 13:11:22;;;;;;;9.80;7.18;;;;;;;;;;5032550;28;20036;-77
2022/11/17 13:13:49;;;;;;;18.25;11.57;;;;;;;;;;5032308;28;20014;-77
2022/11/17 13:16:18;;;;;;;27.02;17.40;;;;;;;;;;5032069;28;20379;-78
2022/11/17 13:18:45;;;;;;;31.00;19.83;;;;;;;;;;5032491;28;20544;-76
2022/11/17 13:21:30;;;;;;;55.65;36.05;;;;;;;;;;5030894;28;20060;-78
2022/11/17 13:23:57;;;;;;;24.95;17.13;;;;;;;;;;5032173;28;20466;-77
2022/11/17 13:26:25;;;;;;;17.88;10.32;;;;;;;;;;5032137;28;20044;-73
2022/11/17 13:29:03;;;;;;;10.15;8.57;;;;;;;;;;5032071;28;20026;-73
2022/11/17 13:31:29;;;;;;;21.85;11.18;;;;;;;;;;5032250;28;20108;-74
2022/11/17 13:33:59;;;;;;;19.35;11.55;;;;;;;;;;5032099;28;20384;-77
2022/11/17 13:36:26;;;;;;;22.38;13.27;;;;;;;;;;5032080;28;20025;-78
2022/11/17 13:38:56;;;;;;;27.17;17.85;;;;;;;;;;5032066;28;20489;-77
2022/11/17 13:41:23;;;;;;;35.80;18.65;;;;;;;;;;5032000;28;20528;-79
2022/11/17 13:43:49;;;;;;;29.63;17.13;;;;;;;;;;5030816;28;20117;-77
2022/11/17 13:46:15;;;;;;;16.02;11.48;;;;;;;;;;5031790;28;20025;-77
2022/11/17 13:48:42;;;;;;;24.52;12.48;;;;;;;;;;5032239;28;20062;-77
2022/11/17 13:51:27;;;;;;;16.17;11.75;;;;;;;;;;5033628;28;20022;-78
2022/11/17 13:53:56;;;;;;;20.50;14.88;;;;;;;;;;5035435;28;20024;-78
2022/11/17 13:56:33;;;;;;;37.63;22.23;;;;;;;;;;5035420;28;20084;-78
2022/11/17 13:59:16;;;;;;;34.72;23.27;;;;;;;;;;5035071;28;20018;-74
2022/11/17 14:01:43;;;;;;;19.17;10.05;;;;;;;;;;5035098;28;20107;-78
2022/11/17 14:04:16;;;;;;;21.60;13.98;;;;;;;;;;5034941;28;20511;-73
2022/11/17 14:07:01;;;;;;;26.35;16.35;;;;;;;;;;5035204;28;20017;-77
2022/11/17 14:09:29;;;;;;;22.63;15.55;;;;;;;;;;5034811;28;20034;-73
2022/11/17 14:11:55;;;;;;;33.72;18.33;;;;;;;;;;5035209;28;20033;-77
2022/11/17 14:14:26;;;;;;;38.17;27.00;;;;;;;;;;5035043;28;20024;-73
2022/11/17 14:16:52;;;;;;;34.50;19.85;;;;;;;;;;5021107;28;20486;-77
2022/11/17 14:19:19;;;;;;;32.00;18.10;;;;;;;;;;5027534;28;20112;-76
2022/11/17 14:21:58;;;;;;;38.42;18.48;;;;;;;;;;5028712;28;20021;-78
2022/11/17 14:24:24;;;;;;;33.92;19.40;;;;;;;;;;5027927;28;20026;-77
2022/11/17 14:26:50;;;;;;;67.80;34.67;;;;;;;;;;5028785;28;20472;-77
2022/11/17 14:29:16;;;;;;;135.48;78.03;;;;;;;;;;5035023;28;20452;-77
2022/11/17 14:31:42;;;;;;;39.63;25.00;;;;;;;;;;5035228;28;20040;-76
2022/11/17 14:34:08;;;;;;;64.15;36.83;;;;;;;;;;5034711;28;20109;-75
2022/11/17 14:36:35;;;;;;;22.83;16.17;;;;;;;;;;5035393;28;20087;-75
2022/11/17 14:39:02;;;;;;;33.80;16.67;;;;;;;;;;5034495;28;20053;-73
2022/11/17 14:41:28;;;;;;;27.63;19.70;;;;;;;;;;5034606;28;20029;-77
2022/11/17 14:43:54;;;;;;;27.88;19.60;;;;;;;;;;5034752;28;20391;-76
2022/11/17 14:46:22;;;;;;;31.00;20.38;;;;;;;;;;5034496;28;20064;-76
2022/11/17 14:48:48;;;;;;;47.70;33.30;;;;;;;;;;5034720;28;20026;-77
2022/11/17 14:51:15;;;;;;;52.17;29.73;;;;;;;;;;5034126;28;20032;-76
2022/11/17 14:53:42;;;;;;;42.28;28.42;;;;;;;;;;5034322;28;20017;-76
2022/11/17 14:56:08;;;;;;;37.50;28.27;;;;;;;;;;5034275;28;20028;-74
2022/11/17 14:58:34;;;;;;;28.08;22.98;;;;;;;;;;5034310;28;20025;-77
2022/11/17 15:01:23;;;;;;;29.58;20.85;;;;;;;;;;5034287;28;20044;-76
2022/11/17 15:03:50;;;;;;;34.88;24.20;;;;;;;;;;5033757;28;20029;-76